Philadelphia, Pennsylvania
Traffic Map
Current Weather Conditions
Philadelphia, Pennsylvania
Broken Clouds
Broken Clouds
20°
Feels Like: 20°
Wind Chill: 20° Ceiling: 25000
Heat Index: 20° Visibility: 10mi
Dew Point: Wind: 14mph
Humidity: 42% Direction: 300° (WNW)
Pressure: 29.81in Gusts: 0mph
Raw Report DataKPHL 242054Z 30012KT 10SM BKN250 20/07 A2981 RMK AO2 SLP094 T02000067 55004
Traffic Incident Summary
Active as of:
Severity:
Category:
InformationThere was an issue retrieving the traffic information for this location. Please try a different location or try again shortly.
Advertisements
Track Severe Weather on mobile